createdAt,value
2018-08-13T00:00:59.580Z,101017.84
2018-08-13T00:03:27.864Z,101017.02
2018-08-13T00:05:56.179Z,101015.33
2018-08-13T00:08:24.479Z,101026.13
2018-08-13T00:10:52.781Z,101025.26
2018-08-13T00:13:21.064Z,101016.28
2018-08-13T00:15:49.413Z,101012.59
2018-08-13T00:18:17.669Z,101000.17
2018-08-13T00:20:45.967Z,100997.89
2018-08-13T00:23:14.225Z,100984.00
2018-08-13T00:25:42.520Z,100987.28
2018-08-13T00:28:11.285Z,100990.39
2018-08-13T00:30:40.103Z,100988.70
2018-08-13T00:33:09.672Z,100987.59
2018-08-13T00:35:37.982Z,100975.28
2018-08-13T00:38:06.537Z,100974.41
2018-08-13T00:40:34.909Z,100974.22
2018-08-13T00:43:03.273Z,100975.39
2018-08-13T00:45:32.598Z,100970.84
2018-08-13T00:48:00.917Z,100969.52
2018-08-13T00:50:30.298Z,100972.37
2018-08-13T00:52:58.549Z,100978.51
2018-08-13T00:55:26.829Z,100965.92
2018-08-13T00:57:55.105Z,100966.98
2018-08-13T01:00:23.599Z,100961.68
2018-08-13T01:02:52.288Z,100951.72
2018-08-13T01:05:22.073Z,100954.73
2018-08-13T01:07:50.699Z,100956.95
2018-08-13T01:10:20.361Z,100955.50
2018-08-13T01:12:48.710Z,100958.52
2018-08-13T01:15:18.502Z,100953.66
2018-08-13T01:17:48.085Z,100955.67
2018-08-13T01:20:19.187Z,100952.22
2018-08-13T01:22:47.548Z,100952.50
2018-08-13T01:25:17.389Z,100945.05
2018-08-13T01:27:46.803Z,100943.11
2018-08-13T01:30:17.456Z,100940.80
2018-08-13T01:32:46.857Z,100941.16
2018-08-13T01:35:15.133Z,100938.69
2018-08-13T01:37:43.454Z,100931.73
2018-08-13T01:40:12.426Z,100938.18
2018-08-13T01:42:40.753Z,100930.36
2018-08-13T01:45:11.580Z,100929.90
2018-08-13T01:47:40.718Z,100930.41
2018-08-13T01:50:10.597Z,100924.92
2018-08-13T01:52:40.228Z,100919.94
2018-08-13T01:55:10.630Z,100924.74
2018-08-13T01:57:39.033Z,100921.49
2018-08-13T02:00:16.701Z,100926.48
2018-08-13T02:02:45.042Z,100931.73
2018-08-13T02:05:13.305Z,100929.08
2018-08-13T02:07:41.949Z,100924.74
2018-08-13T02:10:12.276Z,100920.81
2018-08-13T02:12:40.996Z,100927.12
2018-08-13T02:15:09.438Z,100925.48
2018-08-13T02:17:37.748Z,100926.61
2018-08-13T02:20:07.256Z,100914.51
2018-08-13T02:22:35.672Z,100915.84
2018-08-13T02:25:04.601Z,100911.89
2018-08-13T02:27:32.882Z,100910.94
2018-08-13T02:30:01.198Z,100912.53
2018-08-13T02:32:29.496Z,100901.75
2018-08-13T02:34:57.777Z,100897.31
2018-08-13T02:37:32.308Z,100902.61
2018-08-13T02:40:00.652Z,100901.02
2018-08-13T02:42:29.114Z,100900.33
2018-08-13T02:44:57.393Z,100899.64
2018-08-13T02:47:25.653Z,100893.28
2018-08-13T02:49:54.957Z,100897.58
2018-08-13T02:52:23.228Z,100889.30
2018-08-13T02:54:51.509Z,100886.65
2018-08-13T02:57:19.773Z,100885.23
2018-08-13T02:59:48.057Z,100884.36
2018-08-13T03:02:18.364Z,100875.73
2018-08-13T03:04:46.706Z,100877.23
2018-08-13T03:07:14.913Z,100875.59
2018-08-13T03:09:43.185Z,100878.42
2018-08-13T03:12:11.505Z,100880.44
2018-08-13T03:14:39.806Z,100876.16
2018-08-13T03:17:09.447Z,100883.42
2018-08-13T03:19:37.709Z,100876.47
2018-08-13T03:22:06.017Z,100877.79
2018-08-13T03:24:34.260Z,100878.11
2018-08-13T03:27:03.636Z,100869.16
2018-08-13T03:29:31.922Z,100868.01
2018-08-13T03:32:00.209Z,100861.51
2018-08-13T03:34:28.472Z,100854.88
2018-08-13T03:36:56.763Z,100853.55
2018-08-13T03:39:25.073Z,100847.23
2018-08-13T03:41:53.356Z,100838.60
2018-08-13T03:44:21.621Z,100829.82
2018-08-13T03:46:49.926Z,100832.91
2018-08-13T03:49:18.169Z,100837.88
2018-08-13T03:51:47.553Z,100844.71
2018-08-13T03:54:15.810Z,100848.30
2018-08-13T03:56:44.190Z,100854.61
2018-08-13T03:59:12.492Z,100857.27
2018-08-13T04:01:40.804Z,100845.89
2018-08-13T04:04:09.111Z,100851.37
2018-08-13T04:06:37.349Z,100841.23
2018-08-13T04:09:08.328Z,100838.77
2018-08-13T04:11:37.027Z,100837.48
2018-08-13T04:14:06.245Z,100831.17
2018-08-13T04:16:34.488Z,100831.67
2018-08-13T04:19:03.274Z,100825.23
2018-08-13T04:21:31.527Z,100814.62
2018-08-13T04:23:59.837Z,100815.41
2018-08-13T04:26:28.109Z,100810.15
2018-08-13T04:28:56.392Z,100811.23
2018-08-13T04:31:24.652Z,100811.30
2018-08-13T04:33:52.925Z,100808.45
2018-08-13T04:36:21.204Z,100799.95
2018-08-13T04:38:49.461Z,100797.22
2018-08-13T04:41:17.749Z,100790.41
2018-08-13T04:43:46.049Z,100793.45
2018-08-13T04:46:14.296Z,100785.87
2018-08-13T04:48:42.577Z,100784.21
2018-08-13T04:51:10.828Z,100786.42
2018-08-13T04:53:39.113Z,100784.38
2018-08-13T04:56:07.382Z,100789.95
2018-08-13T04:58:35.672Z,100789.37
2018-08-13T05:01:03.981Z,100787.25
2018-08-13T05:03:32.296Z,100795.19
2018-08-13T05:06:00.545Z,100791.70
2018-08-13T05:08:28.811Z,100787.27
2018-08-13T05:10:57.077Z,100793.29
2018-08-13T05:13:25.336Z,100786.59
2018-08-13T05:15:53.669Z,100789.22
2018-08-13T05:18:22.312Z,100785.17
2018-08-13T05:20:50.604Z,100792.63
2018-08-13T05:23:18.940Z,100783.63
2018-08-13T05:25:47.269Z,100788.55
2018-08-13T05:28:15.620Z,100784.41
2018-08-13T05:30:43.917Z,100787.39
2018-08-13T05:33:12.200Z,100794.47
2018-08-13T05:35:40.489Z,100792.92
2018-08-13T05:38:09.756Z,100782.64
2018-08-13T05:40:38.077Z,100795.45
2018-08-13T05:43:06.632Z,100788.05
2018-08-13T05:45:34.973Z,100793.55
2018-08-13T05:48:03.388Z,100798.77
2018-08-13T05:50:34.172Z,100794.05
2018-08-13T05:53:02.540Z,100792.44
2018-08-13T05:55:30.753Z,100794.08
2018-08-13T05:57:59.473Z,100796.68
2018-08-13T06:00:27.721Z,100794.08
2018-08-13T06:02:56.070Z,100799.73
2018-08-13T06:05:24.293Z,100799.39
2018-08-13T06:07:52.595Z,100804.39
2018-08-13T06:10:20.904Z,100801.34
2018-08-13T06:12:49.192Z,100799.04
2018-08-13T06:15:17.457Z,100796.34
2018-08-13T06:17:45.717Z,100793.27
2018-08-13T06:20:14.038Z,100795.61
2018-08-13T06:22:43.784Z,100789.24
2018-08-13T06:25:12.972Z,100791.16
2018-08-13T06:27:41.265Z,100787.30
2018-08-13T06:30:12.084Z,100779.52
2018-08-13T06:32:41.222Z,100779.33
2018-08-13T06:35:09.821Z,100783.70
2018-08-13T06:37:38.084Z,100796.14
2018-08-13T06:40:06.997Z,100793.25
2018-08-13T06:42:35.248Z,100791.37
2018-08-13T06:45:03.765Z,100795.94
2018-08-13T06:47:32.025Z,100795.77
2018-08-13T06:50:00.370Z,100794.50
2018-08-13T06:52:28.625Z,100791.25
2018-08-13T06:54:56.913Z,100796.11
2018-08-13T06:57:25.212Z,100789.83
2018-08-13T06:59:53.512Z,100787.06
2018-08-13T07:02:21.821Z,100782.72
2018-08-13T07:04:50.116Z,100782.81
2018-08-13T07:07:18.453Z,100778.88
2018-08-13T07:09:46.757Z,100780.93
2018-08-13T07:12:15.073Z,100775.58
2018-08-13T07:14:43.441Z,100781.04
2018-08-13T07:17:11.736Z,100780.22
2018-08-13T07:19:39.969Z,100776.05
2018-08-13T07:22:08.298Z,100783.08
2018-08-13T07:24:37.026Z,100786.88
2018-08-13T07:27:05.317Z,100779.87
2018-08-13T07:29:33.564Z,100779.73
2018-08-13T07:32:01.853Z,100782.61
2018-08-13T07:34:30.108Z,100787.97
2018-08-13T07:36:58.393Z,100784.22
2018-08-13T07:39:26.742Z,100784.59
2018-08-13T07:41:54.997Z,100790.39
2018-08-13T07:44:23.253Z,100786.39
2018-08-13T07:46:52.612Z,100782.27
2018-08-13T07:49:20.877Z,100782.14
2018-08-13T07:51:49.220Z,100776.87
2018-08-13T07:54:17.405Z,100783.93
2018-08-13T07:56:45.682Z,100781.55
2018-08-13T07:59:13.940Z,100787.56
2018-08-13T08:01:42.193Z,100789.51
2018-08-13T08:04:10.492Z,100791.79
2018-08-13T08:06:39.941Z,100788.30
2018-08-13T08:09:10.727Z,100791.12
2018-08-13T08:11:39.820Z,100784.05
2018-08-13T08:14:08.592Z,100780.05
2018-08-13T08:16:36.842Z,100782.13
2018-08-13T08:19:05.117Z,100782.50
2018-08-13T08:21:33.397Z,100770.60
2018-08-13T08:24:02.110Z,100776.28
2018-08-13T08:26:30.709Z,100773.50
2018-08-13T08:28:59.003Z,100764.42
2018-08-13T08:31:27.325Z,100764.84
2018-08-13T08:33:55.641Z,100762.88
2018-08-13T08:36:23.974Z,100757.52
2018-08-13T08:38:52.552Z,100754.66
2018-08-13T08:41:20.877Z,100758.30
2018-08-13T08:43:49.130Z,100747.84
2018-08-13T08:46:17.417Z,100745.88
2018-08-13T08:48:45.661Z,100738.66
2018-08-13T08:51:14.061Z,100745.04
2018-08-13T08:53:42.420Z,100740.21
2018-08-13T08:56:10.589Z,100736.31
2018-08-13T08:58:38.868Z,100742.83
2018-08-13T09:01:07.141Z,100740.55
2018-08-13T09:03:35.543Z,100747.85
2018-08-13T09:06:04.215Z,100747.54
2018-08-13T09:08:32.410Z,100751.02
2018-08-13T09:11:00.676Z,100749.06
2018-08-13T09:13:28.949Z,100736.96
2018-08-13T09:15:57.246Z,100737.70
2018-08-13T09:18:36.689Z,100736.36
2018-08-13T09:21:16.245Z,100735.37
2018-08-13T09:23:55.942Z,100739.89
2018-08-13T09:26:35.632Z,100739.69
2018-08-13T09:29:15.105Z,100739.88
2018-08-13T09:32:27.223Z,100739.88
2018-08-13T09:35:17.150Z,100728.24
2018-08-13T09:37:45.546Z,100728.41
2018-08-13T09:40:13.888Z,100725.16
2018-08-13T09:42:42.252Z,100719.59
2018-08-13T09:45:10.517Z,100716.34
2018-08-13T09:47:39.467Z,100711.11
2018-08-13T09:50:10.177Z,100707.75
2018-08-13T09:52:38.481Z,100707.13
2018-08-13T09:55:07.960Z,100701.14
2018-08-13T09:57:36.249Z,100698.72
2018-08-13T10:00:07.169Z,100699.03
2018-08-13T10:02:35.441Z,100701.87
2018-08-13T10:05:03.763Z,100704.02
2018-08-13T10:07:32.041Z,100693.32
2018-08-13T10:10:00.325Z,100695.60
2018-08-13T10:12:28.581Z,100691.95
2018-08-13T10:14:56.960Z,100675.33
2018-08-13T10:17:25.287Z,100683.36
2018-08-13T10:19:53.584Z,100686.52
2018-08-13T10:22:22.046Z,100678.23
2018-08-13T10:24:50.344Z,100678.86
2018-08-13T10:27:18.617Z,100680.59
2018-08-13T10:29:47.002Z,100677.52
2018-08-13T10:32:15.246Z,100675.78
2018-08-13T10:34:44.589Z,100678.52
2018-08-13T10:37:12.925Z,100678.57
2018-08-13T10:39:41.206Z,100675.49
2018-08-13T10:42:09.502Z,100673.16
2018-08-13T10:44:37.797Z,100669.59
2018-08-13T10:47:06.077Z,100665.44
2018-08-13T10:49:34.397Z,100658.68
2018-08-13T10:52:02.645Z,100657.81
2018-08-13T10:54:30.912Z,100654.10
2018-08-13T10:56:59.204Z,100659.18
2018-08-13T10:59:27.454Z,100647.72
2018-08-13T11:01:55.742Z,100650.16
2018-08-13T11:04:24.024Z,100652.78
2018-08-13T11:06:52.322Z,100643.62
2018-08-13T11:09:20.564Z,100645.20
2018-08-13T11:11:48.876Z,100643.26
2018-08-13T11:14:17.153Z,100643.58
2018-08-13T11:16:45.455Z,100643.73
2018-08-13T11:19:13.708Z,100639.18
2018-08-13T11:21:42.253Z,100639.39
2018-08-13T11:24:10.493Z,100642.48
2018-08-13T11:26:38.741Z,100639.34
2018-08-13T11:29:08.109Z,100640.81
2018-08-13T11:31:36.419Z,100639.49
2018-08-13T11:34:04.705Z,100646.24
2018-08-13T11:36:32.969Z,100637.67
2018-08-13T11:39:01.282Z,100635.47
2018-08-13T11:41:30.618Z,100630.14
2018-08-13T11:43:58.897Z,100629.69
2018-08-13T11:46:27.300Z,100627.88
2018-08-13T11:48:55.585Z,100630.66
2018-08-13T11:51:23.885Z,100623.86
2018-08-13T11:53:52.168Z,100623.33
2018-08-13T11:56:20.587Z,100627.27
2018-08-13T11:58:48.977Z,100625.94
2018-08-13T12:01:17.272Z,100630.94
2018-08-13T12:03:45.612Z,100630.78
2018-08-13T12:06:13.857Z,100631.19
2018-08-13T12:08:42.193Z,100629.47
2018-08-13T12:11:10.525Z,100627.78
2018-08-13T12:13:38.820Z,100626.20
2018-08-13T12:16:07.229Z,100625.31
2018-08-13T12:18:35.495Z,100627.05
2018-08-13T12:21:03.777Z,100618.60
2018-08-13T12:23:32.021Z,100620.16
2018-08-13T12:26:00.309Z,100618.67
2018-08-13T12:28:28.548Z,100619.83
2018-08-13T12:30:56.958Z,100624.70
2018-08-13T12:33:25.217Z,100622.20
2018-08-13T12:35:53.509Z,100624.09
2018-08-13T12:38:21.825Z,100627.03
2018-08-13T12:40:50.121Z,100619.00
2018-08-13T12:43:18.377Z,100614.25
2018-08-13T12:45:46.790Z,100623.59
2018-08-13T12:48:15.109Z,100610.84
2018-08-13T12:50:43.421Z,100591.52
2018-08-13T12:53:11.717Z,100594.08
2018-08-13T12:55:40.134Z,100584.39
2018-08-13T12:58:08.421Z,100577.50
2018-08-13T13:00:36.758Z,100577.70
2018-08-13T13:03:05.061Z,100577.67
2018-08-13T13:05:33.449Z,100570.44
2018-08-13T13:08:01.754Z,100568.07
2018-08-13T13:10:30.044Z,100566.73
2018-08-13T13:12:58.375Z,100564.05
2018-08-13T13:15:26.625Z,100572.66
2018-08-13T13:17:54.968Z,100568.89
2018-08-13T13:20:23.880Z,100564.76
2018-08-13T13:22:52.609Z,100560.42
2018-08-13T13:25:21.244Z,100561.97
2018-08-13T13:27:49.625Z,100567.41
2018-08-13T13:30:18.293Z,100560.47
2018-08-13T13:32:46.825Z,100556.99
2018-08-13T13:35:16.436Z,100549.92
2018-08-13T13:37:44.716Z,100553.22
2018-08-13T13:40:15.690Z,100551.52
2018-08-13T13:42:44.001Z,100547.06
2018-08-13T13:45:12.782Z,100540.67
2018-08-13T13:47:41.143Z,100544.42
2018-08-13T13:50:13.983Z,100540.98
2018-08-13T13:52:42.496Z,100540.77
2018-08-13T13:55:12.180Z,100535.09
2018-08-13T13:57:40.494Z,100532.61
2018-08-13T14:00:15.405Z,100533.13
2018-08-13T14:02:43.770Z,100529.07
2018-08-13T14:05:12.082Z,100529.87
2018-08-13T14:07:40.341Z,100530.81
2018-08-13T14:10:14.159Z,100531.40
2018-08-13T14:12:42.757Z,100532.02
2018-08-13T14:15:13.129Z,100537.38
2018-08-13T14:17:42.105Z,100530.06
2018-08-13T14:20:11.135Z,100538.72
2018-08-13T14:22:40.180Z,100537.09
2018-08-13T14:25:10.313Z,100534.95
2018-08-13T14:27:38.665Z,100540.09
2018-08-13T14:30:11.048Z,100541.29
2018-08-13T14:32:39.323Z,100546.94
2018-08-13T14:35:07.697Z,100546.27
2018-08-13T14:37:36.047Z,100542.74
2018-08-13T14:40:04.677Z,100534.98
2018-08-13T14:42:32.976Z,100536.67
2018-08-13T14:45:01.247Z,100532.08
2018-08-13T14:47:29.561Z,100533.47
2018-08-13T14:49:57.851Z,100537.57
2018-08-13T14:52:26.106Z,100536.46
2018-08-13T14:54:57.813Z,100538.84
2018-08-13T14:57:26.435Z,100538.66
2018-08-13T14:59:54.789Z,100535.84
2018-08-13T15:02:23.057Z,100540.26
2018-08-13T15:04:51.334Z,100537.63
2018-08-13T15:07:19.629Z,100533.59
2018-08-13T15:09:47.945Z,100537.79
2018-08-13T15:12:16.236Z,100535.46
2018-08-13T15:14:44.545Z,100535.66
2018-08-13T15:17:12.838Z,100534.49
2018-08-13T15:19:48.461Z,100540.62
2018-08-13T15:22:16.789Z,100530.52
2018-08-13T15:24:45.029Z,100537.41
2018-08-13T15:27:13.409Z,100535.98
2018-08-13T15:29:41.581Z,100538.97
2018-08-13T15:32:09.873Z,100539.71
2018-08-13T15:34:38.125Z,100540.59
2018-08-13T15:37:06.405Z,100542.51
2018-08-13T15:39:34.660Z,100547.28
2018-08-13T15:42:03.090Z,100546.47
2018-08-13T15:44:31.502Z,100552.14
2018-08-13T15:47:00.033Z,100561.63
2018-08-13T15:49:28.285Z,100552.88
2018-08-13T15:51:56.681Z,100557.04
2018-08-13T15:54:24.993Z,100555.06
2018-08-13T15:56:53.277Z,100546.17
2018-08-13T15:59:22.596Z,100537.16
2018-08-13T16:01:50.930Z,100533.27
2018-08-13T16:04:20.209Z,100533.50
2018-08-13T16:06:49.477Z,100533.36
2018-08-13T16:09:17.793Z,100529.88
2018-08-13T16:11:46.036Z,100529.95
2018-08-13T16:14:14.349Z,100534.02
2018-08-13T16:16:42.600Z,100529.35
2018-08-13T16:19:10.902Z,100533.66
2018-08-13T16:21:39.231Z,100523.08
2018-08-13T16:24:07.549Z,100516.73
2018-08-13T16:26:35.876Z,100517.37
2018-08-13T16:29:04.169Z,100504.92
2018-08-13T16:31:32.608Z,100508.72
2018-08-13T16:34:00.888Z,100514.23
2018-08-13T16:36:29.133Z,100512.30
2018-08-13T16:38:57.408Z,100511.32
2018-08-13T16:41:25.684Z,100506.07
2018-08-13T16:43:54.117Z,100500.25
2018-08-13T16:46:22.374Z,100506.27
2018-08-13T16:48:50.665Z,100505.83
2018-08-13T16:51:18.948Z,100503.23
2018-08-13T16:53:47.262Z,100498.30
2018-08-13T16:56:15.627Z,100506.69
2018-08-13T16:58:43.923Z,100500.56
2018-08-13T17:01:12.267Z,100495.36
2018-08-13T17:03:40.606Z,100500.38
2018-08-13T17:06:08.884Z,100490.77
2018-08-13T17:08:37.202Z,100492.09
2018-08-13T17:11:05.882Z,100492.95
2018-08-13T17:13:34.204Z,100486.88
2018-08-13T17:16:03.581Z,100481.31
2018-08-13T17:18:32.053Z,100475.89
2018-08-13T17:21:01.444Z,100472.78
2018-08-13T17:23:29.697Z,100480.38
2018-08-13T17:25:58.005Z,100479.08
2018-08-13T17:28:26.251Z,100481.02
2018-08-13T17:30:54.532Z,100476.93
2018-08-13T17:33:22.809Z,100478.86
2018-08-13T17:35:51.169Z,100486.65
2018-08-13T17:38:19.439Z,100483.91
2018-08-13T17:40:47.770Z,100482.87
2018-08-13T17:43:16.341Z,100484.72
2018-08-13T17:45:44.490Z,100484.86
2018-08-13T17:48:12.753Z,100486.27
2018-08-13T17:50:41.049Z,100488.20
2018-08-13T17:53:10.257Z,100488.50
2018-08-13T17:55:38.677Z,100485.72
2018-08-13T17:58:08.052Z,100488.95
2018-08-13T18:00:36.328Z,100480.12
2018-08-13T18:03:04.590Z,100478.86
2018-08-13T18:05:32.864Z,100482.57
2018-08-13T18:08:01.112Z,100478.78
2018-08-13T18:10:32.565Z,100481.83
2018-08-13T18:13:02.549Z,100476.78
2018-08-13T18:15:31.262Z,100475.97
2018-08-13T18:17:59.597Z,100470.63
2018-08-13T18:20:28.265Z,100475.08
2018-08-13T18:22:56.601Z,100470.77
2018-08-13T18:25:24.941Z,100473.41
2018-08-13T18:27:53.564Z,100470.46
2018-08-13T18:30:25.021Z,100479.51
2018-08-13T18:32:53.748Z,100477.91
2018-08-13T18:35:22.032Z,100483.48
2018-08-13T18:37:50.321Z,100488.63
2018-08-13T18:40:22.265Z,100486.16
2018-08-13T18:42:50.835Z,100489.42
2018-08-13T18:45:19.097Z,100498.47
2018-08-13T18:47:48.177Z,100496.02
2018-08-13T18:50:17.980Z,100498.47
2018-08-13T18:52:46.649Z,100503.31
2018-08-13T18:55:16.494Z,100499.22
2018-08-13T18:57:44.990Z,100507.33
2018-08-13T19:00:17.869Z,100510.21
2018-08-13T19:02:46.159Z,100509.18
2018-08-13T19:05:16.088Z,100511.78
2018-08-13T19:07:45.217Z,100516.59
2018-08-13T19:10:14.486Z,100515.70
2018-08-13T19:12:42.758Z,100528.09
2018-08-13T19:15:13.205Z,100519.27
2018-08-13T19:17:41.505Z,100524.80
2018-08-13T19:20:11.723Z,100531.99
2018-08-13T19:22:40.044Z,100542.97
2018-08-13T19:25:12.577Z,100549.51
2018-08-13T19:27:41.116Z,100565.56
2018-08-13T19:30:10.729Z,100605.40
2018-08-13T19:32:38.996Z,100591.47
2018-08-13T19:35:08.142Z,100592.03
2018-08-13T19:37:36.393Z,100588.61
2018-08-13T19:40:07.149Z,100577.70
2018-08-13T19:42:35.502Z,100580.05
2018-08-13T19:45:04.083Z,100572.58
2018-08-13T19:47:32.339Z,100562.23
2018-08-13T19:50:00.663Z,100555.11
2018-08-13T19:52:28.938Z,100544.53
2018-08-13T19:54:57.437Z,100535.22
2018-08-13T19:57:25.723Z,100532.37
2018-08-13T19:59:53.998Z,100531.91
2018-08-13T20:02:22.289Z,100517.12
2018-08-13T20:04:53.339Z,100513.20
2018-08-13T20:07:21.693Z,100510.29
2018-08-13T20:09:49.957Z,100502.81
2018-08-13T20:12:18.361Z,100508.75
2018-08-13T20:14:46.665Z,100520.45
2018-08-13T20:17:14.976Z,100525.28
2018-08-13T20:19:43.345Z,100535.20
2018-08-13T20:22:15.087Z,100533.73
2018-08-13T20:24:43.750Z,100531.78
2018-08-13T20:27:12.097Z,100528.37
2018-08-13T20:29:40.396Z,100525.99
2018-08-13T20:32:09.440Z,100520.98
2018-08-13T20:34:37.721Z,100517.68
2018-08-13T20:37:06.108Z,100523.34
2018-08-13T20:39:34.317Z,100518.25
2018-08-13T20:42:02.613Z,100519.77
2018-08-13T20:44:30.939Z,100522.38
2018-08-13T20:46:59.241Z,100520.95
2018-08-13T20:49:27.626Z,100518.58
2018-08-13T20:51:55.851Z,100518.19
2018-08-13T20:54:24.177Z,100515.41
2018-08-13T20:56:52.447Z,100527.92
2018-08-13T20:59:20.741Z,100534.45
2018-08-13T21:01:49.006Z,100531.55
2018-08-13T21:04:17.652Z,100540.96
2018-08-13T21:06:45.932Z,100548.81
2018-08-13T21:09:14.361Z,100550.83
2018-08-13T21:11:42.549Z,100552.08
2018-08-13T21:14:10.885Z,100544.95
2018-08-13T21:16:39.165Z,100549.20
2018-08-13T21:19:07.493Z,100550.25
2018-08-13T21:21:35.769Z,100551.56
2018-08-13T21:24:04.477Z,100559.33
2018-08-13T21:26:32.746Z,100555.47
2018-08-13T21:29:01.022Z,100553.52
2018-08-13T21:31:29.322Z,100554.42
2018-08-13T21:33:57.634Z,100557.04
2018-08-13T21:36:25.958Z,100558.48
2018-08-13T21:38:55.367Z,100556.72
2018-08-13T21:41:24.242Z,100554.98
2018-08-13T21:43:53.516Z,100560.01
2018-08-13T21:46:21.839Z,100556.72
2018-08-13T21:48:50.323Z,100562.98
2018-08-13T21:51:18.641Z,100550.41
2018-08-13T21:53:46.912Z,100557.80
2018-08-13T21:56:15.349Z,100554.80
2018-08-13T21:58:43.625Z,100552.75
2018-08-13T22:01:17.254Z,100555.11
2018-08-13T22:03:45.534Z,100559.98
2018-08-13T22:06:13.872Z,100557.95
2018-08-13T22:08:42.405Z,100557.58
2018-08-13T22:11:11.309Z,100555.33
2018-08-13T22:13:39.637Z,100564.20
2018-08-13T22:16:07.933Z,100558.37
2018-08-13T22:18:36.204Z,100556.82
2018-08-13T22:21:06.021Z,100564.37
2018-08-13T22:23:34.305Z,100565.09
2018-08-13T22:26:02.633Z,100559.41
2018-08-13T22:28:30.912Z,100567.52
2018-08-13T22:30:59.440Z,100562.13
2018-08-13T22:33:27.713Z,100564.08
2018-08-13T22:35:55.993Z,100561.63
2018-08-13T22:38:24.277Z,100561.72
2018-08-13T22:40:52.605Z,100553.69
2018-08-13T22:43:21.997Z,100554.52
2018-08-13T22:45:50.250Z,100562.16
2018-08-13T22:48:18.553Z,100559.94
2018-08-13T22:50:46.862Z,100558.70
2018-08-13T22:53:15.159Z,100562.68
2018-08-13T22:55:43.425Z,100566.54
2018-08-13T22:58:11.883Z,100561.73
2018-08-13T23:00:40.219Z,100569.32
2018-08-13T23:03:08.480Z,100570.02
2018-08-13T23:05:36.765Z,100572.86
2018-08-13T23:08:05.266Z,100571.09
2018-08-13T23:10:33.549Z,100568.61
2018-08-13T23:13:01.885Z,100566.78
2018-08-13T23:15:30.204Z,100571.55
2018-08-13T23:17:58.505Z,100573.33
2018-08-13T23:20:28.601Z,100576.08
2018-08-13T23:22:59.080Z,100576.77
2018-08-13T23:25:28.009Z,100580.27
2018-08-13T23:27:57.428Z,100583.17
2018-08-13T23:30:25.769Z,100578.22
2018-08-13T23:32:55.061Z,100581.17
2018-08-13T23:35:24.069Z,100580.52
2018-08-13T23:37:52.654Z,100583.61
2018-08-13T23:40:20.999Z,100581.36
2018-08-13T23:42:49.313Z,100576.55
2018-08-13T23:45:20.929Z,100583.26
2018-08-13T23:47:49.233Z,100579.02
2018-08-13T23:50:19.596Z,100577.00
2018-08-13T23:52:48.980Z,100579.50
2018-08-13T23:55:32.633Z,100577.95
2018-08-13T23:58:01.459Z,100574.98
